Time;durP1;ratioP1;P1;durP2;ratioP2;P2;SDS_P1;SDS_P2;PMS_P1;PMS_P2;Temp;Humidity;BMP_temperature;BMP_pressure;BME280_temperature;BME280_humidity;BME280_pressure;Samples;Min_cycle;Max_cycle;Signal;HPM_P1;HPM_P2
2023/03/29 00:28:36;;;;;;;20.20;12.10;;;;;;;-0.47;81.65;100888.27;181540;1258;58377;-89
2023/03/29 00:32:40;;;;;;;24.90;12.20;;;;;;;-0.46;81.56;100886.02;181370;1258;43788;-90
2023/03/29 00:41:16;;;;;;;15.00;11.20;;;;;;;-0.63;82.39;100880.85;153008;1262;44428;-90
2023/03/29 01:04:58;;;;;;;16.40;9.10;;;;;;;-0.84;82.65;100866.91;163193;1259;44769;-91
2023/03/29 02:13:51;;;;;;;13.20;9.40;;;;;;;-1.06;86.36;100831.40;170895;1259;44533;-90
2023/03/29 02:18:02;;;;;;;20.50;10.80;;;;;;;-0.92;85.86;100824.48;181382;1259;43678;-90
2023/03/29 02:45:13;;;;;;;15.50;8.70;;;;;;;-0.92;87.66;100800.58;158204;1257;58205;-88
2023/03/29 03:03:05;;;;;;;14.90;9.80;;;;;;;-0.89;87.87;100782.41;143314;1287;44945;-88
2023/03/29 03:11:49;;;;;;;12.10;8.70;;;;;;;-0.91;87.57;100768.01;153483;1260;44365;-90
2023/03/29 03:49:23;;;;;;;14.90;7.40;;;;;;;-1.22;89.52;100745.66;143120;1286;44549;-88
2023/03/29 04:02:48;;;;;;;10.60;6.70;;;;;;;-1.26;89.10;100746.27;171826;1257;45861;-89
2023/03/29 04:07:01;;;;;;;14.60;7.10;;;;;;;-1.25;89.73;100742.77;181216;1259;44086;-90
2023/03/29 04:11:06;;;;;;;8.90;5.20;;;;;;;-1.15;88.42;100742.86;181277;1261;43845;-89
2023/03/29 04:15:12;;;;;;;10.40;7.60;;;;;;;-1.02;88.25;100743.40;181213;1259;60279;-89
2023/03/29 04:24:14;;;;;;;14.30;6.40;;;;;;;-0.77;87.67;100736.47;175577;1260;43886;-91
2023/03/29 04:28:18;;;;;;;11.00;5.90;;;;;;;-0.64;87.84;100735.94;181098;1260;43885;-89
2023/03/29 04:32:23;;;;;;;12.20;6.70;;;;;;;-0.51;87.53;100738.72;181069;1260;43948;-89
2023/03/29 04:36:32;;;;;;;8.50;5.80;;;;;;;-0.44;87.95;100733.63;181089;1261;59189;-89
2023/03/29 04:40:37;;;;;;;13.30;7.60;;;;;;;-0.36;87.72;100729.02;181036;1261;44751;-90
2023/03/29 04:44:42;;;;;;;22.30;10.60;;;;;;;-0.26;87.56;100726.85;180869;1260;44364;-89
2023/03/29 04:48:46;;;;;;;10.20;7.10;;;;;;;-0.21;86.57;100727.89;181072;1260;43852;-89
2023/03/29 04:52:50;;;;;;;10.60;5.00;;;;;;;-0.06;85.97;100720.48;181136;1260;44175;-90
2023/03/29 04:56:55;;;;;;;9.30;5.90;;;;;;;0.08;86.08;100716.94;180915;1260;57569;-89
2023/03/29 05:00:59;;;;;;;7.80;5.50;;;;;;;0.27;85.94;100713.20;180994;1260;44042;-90
2023/03/29 05:05:06;;;;;;;8.20;4.80;;;;;;;0.50;85.65;100705.48;181006;1260;43964;-89
2023/03/29 05:09:09;;;;;;;10.20;5.70;;;;;;;0.89;85.49;100701.87;181110;1260;43846;-89
2023/03/29 05:13:13;;;;;;;7.90;4.40;;;;;;;1.38;84.42;100700.84;180995;1260;44209;-89
2023/03/29 05:17:16;;;;;;;8.30;4.60;;;;;;;1.73;83.33;100697.45;180946;1260;60204;-90
2023/03/29 05:21:20;;;;;;;3.50;2.60;;;;;;;2.28;82.02;100690.42;180963;1260;43808;-90
2023/03/29 05:25:25;;;;;;;3.70;2.80;;;;;;;2.80;80.51;100690.89;181095;1260;44169;-90
2023/03/29 05:29:28;;;;;;;4.70;3.60;;;;;;;3.34;78.10;100693.66;181015;1260;43810;-90
2023/03/29 05:33:33;;;;;;;5.60;3.30;;;;;;;3.85;75.21;100689.73;181089;1260;43893;-89
2023/03/29 05:37:37;;;;;;;5.30;3.80;;;;;;;4.33;73.56;100683.08;181079;1261;58350;-90
2023/03/29 05:41:42;;;;;;;5.30;4.80;;;;;;;4.73;71.16;100684.77;181062;1260;43913;-90
2023/03/29 05:45:48;;;;;;;11.30;5.20;;;;;;;5.20;70.36;100688.66;181093;1260;44235;-89
2023/03/29 05:49:53;;;;;;;4.80;3.30;;;;;;;5.33;67.87;100688.54;181108;1260;44123;-90
2023/03/29 05:53:57;;;;;;;9.50;4.70;;;;;;;4.90;67.77;100684.94;181051;1260;44442;-91
2023/03/29 05:58:01;;;;;;;5.80;4.70;;;;;;;4.52;68.90;100687.58;181071;1260;59615;-90
2023/03/29 06:02:05;;;;;;;7.50;4.30;;;;;;;4.47;70.80;100683.80;181072;1260;43890;-90
2023/03/29 06:06:10;;;;;;;7.80;5.50;;;;;;;4.97;70.19;100677.75;181068;1260;43915;-90
2023/03/29 06:10:15;;;;;;;12.30;5.00;;;;;;;5.16;68.02;100674.11;181092;1260;44233;-89
2023/03/29 06:14:19;;;;;;;10.90;3.80;;;;;;;5.16;67.24;100669.55;181106;1260;43709;-89
2023/03/29 06:18:23;;;;;;;8.30;4.20;;;;;;;4.82;69.11;100668.48;181113;1260;60169;-89
2023/03/29 06:22:27;;;;;;;7.90;4.10;;;;;;;4.50;69.79;100668.54;181100;1260;43789;-89
2023/03/29 06:26:31;;;;;;;12.90;5.60;;;;;;;4.34;69.61;100665.61;181008;1260;44310;-90
2023/03/29 06:30:34;;;;;;;30.10;15.00;;;;;;;4.25;70.01;100665.89;181046;1260;44014;-90
2023/03/29 06:34:37;;;;;;;23.10;10.50;;;;;;;4.25;70.71;100666.93;181067;1260;43734;-90
2023/03/29 06:38:44;;;;;;;8.00;6.80;;;;;;;4.41;70.49;100664.06;180987;1260;58378;-90
2023/03/29 06:42:47;;;;;;;;;;;;;;;4.51;70.96;100665.83;181096;1260;43689;-88
2023/03/29 06:46:51;;;;;;;5.00;3.90;;;;;;;4.64;69.50;100665.34;181059;1260;43885;-89
2023/03/29 06:50:55;;;;;;;8.80;4.40;;;;;;;4.61;69.00;100663.61;181000;1260;43962;-90
2023/03/29 06:55:00;;;;;;;7.90;4.50;;;;;;;4.82;69.29;100654.98;180977;1260;43764;-89
2023/03/29 06:59:04;;;;;;;11.40;5.90;;;;;;;5.19;69.43;100653.59;181047;1260;58176;-89
2023/03/29 07:03:12;;;;;;;10.90;6.10;;;;;;;5.48;67.34;100651.31;181033;1260;44089;-89
2023/03/29 07:07:21;;;;;;;7.50;5.70;;;;;;;5.66;67.29;100654.41;181051;1260;43842;-90
2023/03/29 07:11:25;;;;;;;8.70;5.40;;;;;;;5.72;66.87;100652.46;180956;1260;44244;-89
2023/03/29 07:15:29;;;;;;;9.50;5.60;;;;;;;5.78;66.79;100649.32;181076;1260;43991;-89
2023/03/29 07:19:32;;;;;;;9.60;5.40;;;;;;;5.90;66.68;100650.77;181096;1260;58257;-89
2023/03/29 07:23:36;;;;;;;11.70;5.50;;;;;;;6.06;66.99;100648.48;180905;1260;44285;-89
2023/03/29 07:27:41;;;;;;;13.30;6.40;;;;;;;6.32;66.54;100643.52;181042;1260;44012;-89
2023/03/29 07:31:44;;;;;;;11.00;5.20;;;;;;;6.65;67.77;100644.73;181057;1260;44091;-89
2023/03/29 07:35:49;;;;;;;10.10;7.10;;;;;;;7.22;67.34;100643.98;181006;1260;44078;-89
2023/03/29 07:39:53;;;;;;;12.20;6.30;;;;;;;7.65;65.43;100643.59;181123;1260;58124;-89
2023/03/29 07:44:00;;;;;;;8.50;5.00;;;;;;;7.69;63.58;100637.83;180958;1260;43760;-89
2023/03/29 07:48:07;;;;;;;13.90;5.70;;;;;;;7.75;62.82;100634.15;180993;1260;44189;-90
2023/03/29 07:52:11;;;;;;;9.40;5.60;;;;;;;7.96;63.12;100630.32;181037;1260;43811;-89
2023/03/29 07:56:15;;;;;;;12.80;5.60;;;;;;;8.24;62.22;100629.54;180984;1260;44082;-89
2023/03/29 08:00:19;;;;;;;12.50;6.50;;;;;;;8.31;62.19;100623.95;181036;1260;59769;-90
2023/03/29 08:04:23;;;;;;;9.50;5.10;;;;;;;8.40;62.48;100626.20;181060;1260;43841;-89
2023/03/29 08:08:27;;;;;;;10.20;5.50;;;;;;;8.49;61.50;100624.54;180949;1260;43722;-89
2023/03/29 08:12:31;;;;;;;13.40;6.40;;;;;;;8.70;62.27;100622.81;181064;1260;43907;-89
2023/03/29 08:16:34;;;;;;;8.70;5.70;;;;;;;8.95;61.18;100618.27;180960;1260;44023;-89
2023/03/29 08:20:38;;;;;;;7.30;5.50;;;;;;;9.12;60.43;100621.14;181026;1260;59695;-89
2023/03/29 08:24:42;;;;;;;9.50;7.10;;;;;;;9.18;59.79;100621.63;181094;1261;43970;-89
2023/03/29 08:28:45;;;;;;;10.30;5.40;;;;;;;9.34;59.78;100622.05;180948;1260;43825;-89
2023/03/29 08:32:48;;;;;;;8.70;5.90;;;;;;;9.45;59.03;100618.98;181000;1260;45707;-89
2023/03/29 08:36:57;;;;;;;18.20;6.90;;;;;;;9.58;60.00;100615.05;180915;1261;44031;-90
2023/03/29 08:41:13;;;;;;;9.60;5.90;;;;;;;9.76;59.50;100612.54;180958;1260;58346;-89
2023/03/29 08:45:28;;;;;;;11.10;4.90;;;;;;;9.95;58.60;100605.13;180917;1260;44073;-89
2023/03/29 08:49:32;;;;;;;10.00;6.20;;;;;;;10.19;60.55;100602.15;180991;1260;44154;-89
2023/03/29 08:53:51;;;;;;;11.80;6.30;;;;;;;10.30;58.98;100596.65;180927;1260;44187;-89
2023/03/29 08:57:56;;;;;;;8.50;5.20;;;;;;;10.35;57.07;100592.56;180908;1264;44094;-89
2023/03/29 09:02:03;;;;;;;11.70;6.20;;;;;;;10.47;57.85;100591.54;181005;1260;59726;-89
2023/03/29 09:06:09;;;;;;;7.30;6.60;;;;;;;10.58;59.06;100590.52;180904;1260;47830;-89
2023/03/29 09:10:20;;;;;;;10.10;5.40;;;;;;;10.68;58.61;100588.04;181023;1260;44122;-89
2023/03/29 09:14:46;;;;;;;7.80;5.90;;;;;;;10.90;57.67;100581.34;181009;1261;43820;-89
2023/03/29 09:19:15;;;;;;;7.80;4.60;;;;;;;11.06;57.23;100578.66;181027;1260;44081;-88
2023/03/29 09:23:33;;;;;;;8.50;5.30;;;;;;;11.30;56.80;100574.48;181029;1260;59630;-89
2023/03/29 09:27:40;;;;;;;6.60;4.60;;;;;;;11.39;55.03;100577.13;181055;1260;44131;-89
2023/03/29 09:31:44;;;;;;;6.80;4.40;;;;;;;11.45;56.09;100573.27;180902;1260;215268;-89
2023/03/29 09:36:00;;;;;;;6.70;3.50;;;;;;;11.39;54.87;100570.88;180965;1261;43972;-88
2023/03/29 09:40:11;;;;;;;11.40;5.10;;;;;;;11.36;55.13;100565.98;181091;1261;43700;-89
2023/03/29 09:44:30;;;;;;;6.60;3.70;;;;;;;11.37;55.49;100569.64;181053;1260;58312;-89
2023/03/29 09:48:38;;;;;;;7.30;4.60;;;;;;;11.35;55.02;100574.05;181002;1260;43937;-89
2023/03/29 09:52:42;;;;;;;10.50;4.50;;;;;;;11.37;57.49;100575.66;181096;1260;43990;-89
2023/03/29 09:56:45;;;;;;;6.00;3.60;;;;;;;11.34;55.78;100574.00;180989;1260;44050;-88
2023/03/29 10:00:49;;;;;;;9.20;5.00;;;;;;;11.42;55.56;100567.51;181116;1260;43777;-88
2023/03/29 10:05:02;;;;;;;9.90;4.10;;;;;;;11.45;55.00;100564.73;181026;1260;58364;-88
2023/03/29 10:09:14;;;;;;;10.80;5.10;;;;;;;11.59;55.00;100555.64;180922;1260;43714;-88
2023/03/29 10:13:22;;;;;;;12.20;4.50;;;;;;;11.75;57.28;100546.66;180938;1261;43975;-89
2023/03/29 10:17:28;;;;;;;4.70;3.40;;;;;;;12.05;56.96;100538.36;180858;1260;43900;-88
2023/03/29 10:21:31;;;;;;;8.40;5.20;;;;;;;12.23;55.08;100534.02;180945;1261;44242;-87
2023/03/29 10:25:40;;;;;;;5.20;3.50;;;;;;;12.36;54.36;100534.31;180935;1261;59561;-87
2023/03/29 10:29:45;;;;;;;7.50;3.70;;;;;;;12.54;54.20;100530.89;180978;1261;44224;-87
2023/03/29 10:33:55;;;;;;;6.70;3.90;;;;;;;12.57;53.51;100525.80;180985;1260;44307;-87
2023/03/29 10:38:02;;;;;;;6.90;3.70;;;;;;;12.54;54.22;100525.86;181090;1261;44211;-87
2023/03/29 10:42:09;;;;;;;11.80;4.30;;;;;;;12.52;53.23;100518.25;180997;1261;43745;-87
2023/03/29 10:46:26;;;;;;;7.40;4.80;;;;;;;12.57;52.96;100513.88;180970;1260;58349;-87
2023/03/29 10:50:36;;;;;;;5.80;4.60;;;;;;;12.51;53.11;100506.56;181014;1261;44064;-87
2023/03/29 10:54:40;;;;;;;6.30;3.40;;;;;;;12.53;54.07;100505.53;181107;1261;43796;-86
2023/03/29 10:59:02;;;;;;;6.90;3.80;;;;;;;12.60;53.35;100502.46;180915;1260;43740;-86
2023/03/29 11:03:24;;;;;;;4.30;2.80;;;;;;;12.79;54.15;100494.23;181065;1260;44139;-86
2023/03/29 11:07:32;;;;;;;6.80;3.60;;;;;;;13.02;53.78;100480.08;181066;1260;58653;-86
2023/03/29 11:11:43;;;;;;;11.00;4.10;;;;;;;13.03;53.17;100472.13;180973;1260;44234;-87
2023/03/29 11:16:24;;;;;;;8.70;4.50;;;;;;;13.20;53.52;100462.96;181074;1260;44130;-86
2023/03/29 11:20:40;;;;;;;4.40;3.60;;;;;;;13.39;52.29;100458.32;181062;1261;44094;-87
2023/03/29 11:24:58;;;;;;;3.70;3.20;;;;;;;13.43;51.55;100450.77;180986;1260;43908;-87
2023/03/29 11:29:11;;;;;;;5.70;4.20;;;;;;;13.32;52.20;100450.34;181071;1261;58403;-86
2023/03/29 11:33:33;;;;;;;6.20;3.70;;;;;;;13.18;52.44;100450.39;181027;1260;43853;-86
2023/03/29 11:38:07;;;;;;;6.90;4.10;;;;;;;13.15;52.85;100447.80;181064;1261;44322;-87
2023/03/29 11:42:19;;;;;;;6.50;3.20;;;;;;;13.09;51.37;100446.91;181027;1260;43841;-88
2023/03/29 11:46:29;;;;;;;3.90;3.30;;;;;;;13.04;52.76;100440.92;181033;1260;44048;-89
2023/03/29 11:50:49;;;;;;;4.10;3.50;;;;;;;12.98;51.62;100435.40;180966;1261;59648;-88
2023/03/29 11:55:01;;;;;;;6.40;5.00;;;;;;;13.07;52.64;100422.67;181017;1260;44033;-89
2023/03/29 11:59:15;;;;;;;4.20;3.10;;;;;;;13.12;52.56;100419.90;180994;1260;43740;-88
2023/03/29 12:03:37;;;;;;;7.30;3.50;;;;;;;13.05;50.86;100415.70;181010;1260;44119;-89
2023/03/29 12:08:00;;;;;;;7.10;4.40;;;;;;;13.14;51.82;100407.11;181044;1260;44175;-88
2023/03/29 12:12:08;;;;;;;5.60;3.10;;;;;;;13.20;51.10;100401.94;181000;1261;59657;-89
2023/03/29 12:16:21;;;;;;;4.70;3.00;;;;;;;13.23;51.60;100399.89;181021;1260;43938;-89
2023/03/29 12:20:34;;;;;;;3.90;2.50;;;;;;;13.22;52.20;100394.58;180886;1260;44458;-89
2023/03/29 12:24:40;;;;;;;4.50;2.20;;;;;;;13.12;52.83;100389.42;180981;1261;44433;-89
2023/03/29 12:28:53;;;;;;;6.80;3.20;;;;;;;12.98;50.73;100384.44;181007;1261;43767;-88
2023/03/29 12:33:02;;;;;;;5.10;3.30;;;;;;;12.80;50.28;100379.31;181030;1261;57928;-89
2023/03/29 12:37:16;;;;;;;4.50;3.10;;;;;;;12.74;53.09;100375.75;181080;1261;43747;-88
2023/03/29 12:41:22;;;;;;;6.50;3.90;;;;;;;12.82;52.79;100366.50;181032;1260;44063;-88
2023/03/29 12:45:37;;;;;;;6.30;4.70;;;;;;;12.89;51.92;100366.42;181094;1261;44343;-88
2023/03/29 12:49:40;;;;;;;3.80;3.40;;;;;;;12.87;51.22;100361.48;180967;1260;44048;-89
2023/03/29 12:53:52;;;;;;;5.00;3.10;;;;;;;12.98;51.73;100355.48;180899;1260;58359;-88
2023/03/29 12:58:04;;;;;;;3.70;2.10;;;;;;;13.02;51.89;100359.02;180925;1261;44224;-88
2023/03/29 13:02:14;;;;;;;4.20;2.50;;;;;;;13.12;51.93;100359.17;181105;1262;44249;-88
2023/03/29 13:06:32;;;;;;;8.20;2.90;;;;;;;13.10;51.48;100356.57;181077;1260;43723;-88
2023/03/29 13:10:41;;;;;;;4.80;2.10;;;;;;;13.08;51.38;100356.58;180980;1260;44171;-88
2023/03/29 13:15:06;;;;;;;8.50;7.10;;;;;;;13.12;51.60;100350.15;180999;1261;58184;-89
2023/03/29 13:19:19;;;;;;;3.50;2.30;;;;;;;13.17;50.91;100350.71;180868;1261;44189;-88
2023/03/29 13:23:47;;;;;;;7.20;2.90;;;;;;;13.09;50.08;100346.84;180994;1260;43855;-88
2023/03/29 13:28:01;;;;;;;4.20;2.30;;;;;;;13.03;51.05;100341.90;181025;1260;44095;-88
2023/03/29 13:32:21;;;;;;;4.50;1.60;;;;;;;13.02;52.46;100340.01;181038;1261;43790;-88
2023/03/29 13:36:57;;;;;;;3.80;2.10;;;;;;;12.95;51.75;100338.61;181040;1260;59580;-88
2023/03/29 13:41:24;;;;;;;3.80;2.00;;;;;;;12.72;51.62;100334.84;180959;1260;44080;-88
2023/03/29 13:45:29;;;;;;;6.40;3.70;;;;;;;12.52;51.52;100328.67;180981;1260;43897;-87
2023/03/29 13:49:34;;;;;;;3.50;2.10;;;;;;;12.27;51.26;100326.37;181004;1261;43729;-87
2023/03/29 13:53:45;;;;;;;5.90;2.50;;;;;;;12.14;52.74;100324.81;180946;1261;43757;-88
2023/03/29 13:57:59;;;;;;;3.60;1.80;;;;;;;12.21;52.40;100319.23;180990;1261;59176;-87
2023/03/29 14:02:05;;;;;;;6.40;2.60;;;;;;;12.56;52.44;100316.12;180950;1261;43809;-87
2023/03/29 14:06:11;;;;;;;3.90;2.20;;;;;;;12.84;51.67;100319.86;180959;1261;44115;-87
2023/03/29 14:10:20;;;;;;;4.80;2.60;;;;;;;12.85;51.44;100327.42;181074;1261;43785;-87
2023/03/29 14:14:26;;;;;;;3.10;2.00;;;;;;;12.64;52.50;100328.78;180805;1260;43852;-86
2023/03/29 14:18:36;;;;;;;5.50;2.70;;;;;;;12.29;53.53;100325.47;180941;1261;59690;-86
2023/03/29 14:22:42;;;;;;;4.90;2.30;;;;;;;11.96;54.83;100321.75;180878;1260;44094;-87
2023/03/29 14:26:46;;;;;;;2.60;2.00;;;;;;;11.66;54.94;100318.26;181049;1260;44174;-88
2023/03/29 14:30:51;;;;;;;4.70;2.80;;;;;;;11.38;56.61;100317.59;180972;1261;43748;-88
2023/03/29 14:34:55;;;;;;;4.80;3.60;;;;;;;11.24;57.96;100307.09;180996;1261;44183;-86
2023/03/29 14:39:06;;;;;;;4.00;2.90;;;;;;;11.17;58.34;100298.95;181000;1261;59739;-87
2023/03/29 14:43:16;;;;;;;10.30;2.80;;;;;;;11.10;59.04;100292.98;180937;1262;44086;-87
2023/03/29 14:47:29;;;;;;;4.50;2.70;;;;;;;11.05;59.62;100298.75;180967;1261;43972;-87
2023/03/29 14:51:33;;;;;;;5.30;3.30;;;;;;;10.89;60.22;100300.75;180933;1261;44179;-87
2023/03/29 14:55:37;;;;;;;5.90;3.10;;;;;;;10.69;60.62;100299.72;180870;1261;44012;-88
2023/03/29 14:59:42;;;;;;;7.50;4.20;;;;;;;10.58;62.33;100297.77;180880;1261;59573;-89
2023/03/29 15:03:55;;;;;;;7.70;4.60;;;;;;;10.48;63.28;100299.95;180805;1260;43738;-89
2023/03/29 15:08:00;;;;;;;4.60;3.50;;;;;;;10.40;63.30;100297.56;180888;1261;43970;-89
2023/03/29 15:12:04;;;;;;;5.50;4.20;;;;;;;10.30;62.53;100287.25;180828;1261;44086;-88
2023/03/29 15:16:10;;;;;;;4.40;3.40;;;;;;;10.25;62.49;100289.55;180884;1264;44772;-89
2023/03/29 15:20:28;;;;;;;6.20;4.40;;;;;;;10.24;62.57;100288.77;180908;1262;60787;-89
2023/03/29 15:24:32;;;;;;;6.40;4.30;;;;;;;10.30;63.24;100292.01;181000;1260;43953;-89
2023/03/29 15:28:47;;;;;;;6.10;3.70;;;;;;;10.32;62.47;100302.52;180966;1260;44033;-86
2023/03/29 15:32:51;;;;;;;4.90;4.20;;;;;;;10.41;64.42;100298.40;180773;1260;44068;-85
2023/03/29 15:36:58;;;;;;;8.60;4.90;;;;;;;10.53;64.18;100291.05;180761;1261;55398;-89
2023/03/29 15:41:02;;;;;;;8.90;5.10;;;;;;;10.52;63.89;100286.55;180881;1260;58359;-89
2023/03/29 15:45:13;;;;;;;9.10;5.40;;;;;;;10.41;63.46;100287.55;180890;1260;44165;-89
2023/03/29 15:49:16;;;;;;;8.40;5.60;;;;;;;10.33;63.23;100289.13;180872;1263;43898;-90
2023/03/29 15:53:22;;;;;;;8.80;5.50;;;;;;;10.21;64.40;100289.69;181009;1261;44073;-89
2023/03/29 15:57:25;;;;;;;10.90;7.40;;;;;;;10.03;64.22;100293.44;181107;1260;43749;-89
2023/03/29 16:01:36;;;;;;;7.40;6.20;;;;;;;9.89;64.87;100299.67;180972;1261;59646;-89
2023/03/29 16:05:42;;;;;;;13.80;6.80;;;;;;;9.74;65.20;100295.14;180944;1261;44193;-89
2023/03/29 16:09:46;;;;;;;10.20;6.40;;;;;;;9.62;65.51;100281.91;180925;1261;44251;-88
2023/03/29 16:13:50;;;;;;;7.80;7.00;;;;;;;9.53;65.80;100283.83;180882;1261;44029;-88
2023/03/29 16:17:53;;;;;;;13.90;8.70;;;;;;;9.43;65.66;100285.83;180792;1260;43929;-87
2023/03/29 16:21:59;;;;;;;10.30;7.10;;;;;;;9.34;66.22;100289.39;180984;1260;57474;-87
2023/03/29 16:26:03;;;;;;;10.80;6.90;;;;;;;9.28;66.97;100291.07;180856;1260;44231;-88
2023/03/29 16:30:09;;;;;;;11.10;7.30;;;;;;;9.21;67.46;100287.67;180925;1260;44124;-87
2023/03/29 16:34:15;;;;;;;14.30;9.90;;;;;;;9.13;67.49;100284.02;180985;1260;44047;-89
2023/03/29 16:38:20;;;;;;;16.00;10.90;;;;;;;9.08;68.38;100286.02;180906;1260;43902;-88
2023/03/29 16:42:23;;;;;;;19.70;13.20;;;;;;;9.00;68.45;100281.80;180941;1261;59615;-88
2023/03/29 16:46:27;;;;;;;25.10;14.30;;;;;;;8.95;68.39;100278.30;180794;1260;44095;-87
2023/03/29 16:50:30;;;;;;;27.90;16.20;;;;;;;8.93;68.58;100275.83;180935;1260;43767;-88
2023/03/29 16:54:33;;;;;;;57.40;32.00;;;;;;;8.92;69.03;100277.45;180910;1261;44212;-87
2023/03/29 16:58:41;;;;;;;36.60;22.50;;;;;;;8.88;69.11;100276.36;180805;1260;44083;-89
2023/03/29 17:02:48;;;;;;;36.10;19.10;;;;;;;8.85;69.34;100266.85;180948;1260;59613;-88
2023/03/29 17:06:52;;;;;;;51.70;28.80;;;;;;;8.81;69.49;100262.70;180929;1260;43878;-87
2023/03/29 17:10:56;;;;;;;29.80;16.60;;;;;;;8.80;69.42;100258.39;180913;1260;44135;-88
2023/03/29 17:14:59;;;;;;;21.40;13.20;;;;;;;8.75;69.58;100251.13;180868;1260;44210;-87
2023/03/29 17:19:04;;;;;;;16.70;11.80;;;;;;;8.68;70.01;100248.15;180854;1260;44154;-88
2023/03/29 17:23:07;;;;;;;17.60;11.40;;;;;;;8.63;69.97;100250.08;181037;1260;60758;-89
2023/03/29 17:27:11;;;;;;;14.40;10.60;;;;;;;8.59;70.22;100244.91;180949;1260;44096;-89
2023/03/29 17:31:14;;;;;;;18.50;11.60;;;;;;;8.47;70.48;100247.00;180891;1260;45395;-87
2023/03/29 17:35:18;;;;;;;18.00;11.80;;;;;;;8.42;70.84;100250.12;180941;1260;44036;-87
2023/03/29 17:39:23;;;;;;;23.00;13.10;;;;;;;8.42;70.85;100249.55;180910;1260;44445;-87
2023/03/29 17:43:27;;;;;;;19.50;13.80;;;;;;;8.39;71.24;100251.79;180950;1261;59596;-87
2023/03/29 17:47:31;;;;;;;15.00;12.90;;;;;;;8.38;71.47;100251.14;180822;1260;44213;-87
2023/03/29 17:51:36;;;;;;;18.90;14.30;;;;;;;8.35;71.82;100255.09;180890;1260;43875;-87
2023/03/29 17:55:39;;;;;;;24.40;16.60;;;;;;;8.28;72.07;100257.33;180971;1260;44004;-87
2023/03/29 17:59:43;;;;;;;20.30;14.30;;;;;;;8.28;72.65;100257.52;180899;1260;44401;-87
2023/03/29 18:03:47;;;;;;;15.70;12.50;;;;;;;8.28;72.61;100256.85;180903;1260;58616;-88
2023/03/29 18:07:50;;;;;;;25.90;17.30;;;;;;;8.25;73.25;100252.98;180783;1260;43933;-87
2023/03/29 18:11:54;;;;;;;22.90;14.80;;;;;;;8.23;72.96;100261.44;180645;1261;44251;-87
2023/03/29 18:15:57;;;;;;;20.50;13.30;;;;;;;8.23;73.30;100260.16;180875;1260;50929;-87
2023/03/29 18:20:08;;;;;;;20.10;16.00;;;;;;;8.19;73.44;100252.88;180943;1260;43955;-88
2023/03/29 18:24:13;;;;;;;25.20;16.80;;;;;;;8.18;73.76;100252.64;180964;1260;58968;-88
2023/03/29 18:28:17;;;;;;;20.00;15.40;;;;;;;8.17;73.67;100250.76;180832;1260;43915;-87
2023/03/29 18:32:20;;;;;;;19.30;11.70;;;;;;;8.16;74.16;100253.28;180810;1260;44185;-86
2023/03/29 18:36:24;;;;;;;22.00;14.50;;;;;;;8.10;74.38;100255.77;180863;1260;44172;-86
2023/03/29 18:40:29;;;;;;;20.20;14.20;;;;;;;8.08;74.79;100255.95;180862;1260;43743;-86
2023/03/29 18:44:32;;;;;;;21.80;13.30;;;;;;;8.06;74.73;100252.77;180883;1260;59287;-86
2023/03/29 18:48:39;;;;;;;26.40;15.90;;;;;;;8.05;74.97;100254.41;180779;1260;43894;-86
2023/03/29 18:52:43;;;;;;;36.50;19.50;;;;;;;8.06;75.29;100252.59;180757;1260;44279;-86
2023/03/29 18:56:47;;;;;;;17.30;12.60;;;;;;;8.07;75.42;100258.50;180819;1260;43751;-87
2023/03/29 19:00:51;;;;;;;17.90;10.80;;;;;;;8.09;75.75;100253.79;180931;1260;44188;-87
2023/03/29 19:04:54;;;;;;;26.70;12.70;;;;;;;8.04;76.41;100247.78;181007;1260;59719;-87
2023/03/29 19:09:00;;;;;;;18.00;12.70;;;;;;;8.07;76.21;100247.56;180998;1260;43800;-87
2023/03/29 19:13:05;;;;;;;21.50;13.90;;;;;;;8.06;77.02;100245.36;180800;1260;44161;-86
2023/03/29 19:17:09;;;;;;;17.90;12.20;;;;;;;8.07;77.34;100240.85;180914;1260;44379;-88
2023/03/29 19:21:14;;;;;;;14.50;10.30;;;;;;;8.00;77.66;100236.94;180918;1260;43822;-86
2023/03/29 19:25:17;;;;;;;13.00;9.30;;;;;;;8.00;77.92;100235.54;180809;1260;58263;-85
2023/03/29 19:29:21;;;;;;;20.10;14.00;;;;;;;7.93;78.43;100231.65;180890;1260;44386;-86
2023/03/29 19:33:25;;;;;;;22.50;11.30;;;;;;;7.91;78.62;100228.05;180936;1260;44017;-86
2023/03/29 19:37:29;;;;;;;17.10;11.70;;;;;;;7.91;78.88;100231.40;180846;1260;43925;-86
2023/03/29 19:41:33;;;;;;;12.50;10.00;;;;;;;7.92;79.16;100228.30;180918;1260;44040;-86
2023/03/29 19:45:36;;;;;;;19.30;12.00;;;;;;;7.90;79.60;100224.02;180840;1260;59338;-87
2023/03/29 19:49:40;;;;;;;15.90;10.30;;;;;;;7.92;79.72;100218.23;180817;1261;44322;-86
2023/03/29 19:53:44;;;;;;;25.10;13.60;;;;;;;7.89;79.97;100221.27;181022;1260;43737;-87
2023/03/29 19:57:48;;;;;;;15.60;11.10;;;;;;;7.85;80.14;100213.42;180713;1260;44444;-87
2023/03/29 20:01:55;;;;;;;18.10;12.00;;;;;;;7.82;80.11;100210.33;181033;1260;43797;-86
2023/03/29 20:06:00;;;;;;;14.70;11.00;;;;;;;7.69;80.98;100206.96;180891;1260;59763;-85
2023/03/29 20:10:03;;;;;;;12.40;10.50;;;;;;;7.66;81.22;100213.55;180965;1260;44119;-85
2023/03/29 20:14:07;;;;;;;13.20;9.40;;;;;;;7.62;81.76;100211.03;180968;1260;44274;-86
2023/03/29 20:18:11;;;;;;;11.50;9.00;;;;;;;7.63;81.85;100210.56;180939;1260;44175;-85
2023/03/29 20:22:14;;;;;;;16.50;10.70;;;;;;;7.59;82.82;100212.12;180921;1260;44258;-86
2023/03/29 20:26:18;;;;;;;12.80;9.50;;;;;;;7.59;83.07;100210.46;180831;1261;58276;-85
2023/03/29 20:30:21;;;;;;;13.10;9.30;;;;;;;7.65;83.53;100206.73;180947;1260;46058;-86
2023/03/29 20:34:25;;;;;;;13.70;8.90;;;;;;;7.63;83.86;100205.10;180931;1260;44251;-86
2023/03/29 20:38:28;;;;;;;22.20;12.00;;;;;;;7.70;83.70;100199.69;180978;1260;44187;-86
2023/03/29 20:42:33;;;;;;;12.40;9.00;;;;;;;7.75;83.63;100186.10;180967;1260;43869;-87
2023/03/29 20:46:36;;;;;;;15.60;8.90;;;;;;;7.80;83.54;100181.70;181038;1260;58005;-88
2023/03/29 20:50:40;;;;;;;14.40;10.10;;;;;;;7.81;83.84;100178.42;181025;1260;44034;-88
2023/03/29 20:54:44;;;;;;;8.80;7.10;;;;;;;7.87;84.35;100178.73;180974;1260;44194;-88
2023/03/29 20:58:47;;;;;;;9.80;7.30;;;;;;;7.90;84.93;100169.16;181080;1260;44182;-88
2023/03/29 21:02:57;;;;;;;11.70;9.70;;;;;;;7.96;85.10;100168.16;180850;1260;44219;-87
2023/03/29 21:07:03;;;;;;;12.90;8.70;;;;;;;8.02;84.72;100170.01;181122;1260;60635;-87
2023/03/29 21:11:09;;;;;;;12.90;11.40;;;;;;;8.08;84.44;100166.63;180915;1260;44132;-88
2023/03/29 21:15:13;;;;;;;12.50;8.20;;;;;;;8.04;84.97;100165.45;180919;1260;44003;-89
2023/03/29 21:19:17;;;;;;;11.20;8.00;;;;;;;8.09;84.71;100157.53;181055;1260;43843;-88
2023/03/29 21:23:20;;;;;;;15.80;11.20;;;;;;;8.12;84.58;100151.83;180993;1260;43780;-88
2023/03/29 21:27:24;;;;;;;14.30;10.60;;;;;;;8.15;84.26;100149.29;181031;1260;58129;-89
2023/03/29 21:31:27;;;;;;;13.00;10.90;;;;;;;8.19;83.62;100151.65;180808;1261;275271;-88
2023/03/29 21:35:34;;;;;;;15.20;10.50;;;;;;;8.24;83.27;100149.18;180951;1260;44185;-89
2023/03/29 21:39:37;;;;;;;14.30;10.80;;;;;;;8.21;82.80;100142.83;180916;1260;43811;-86
2023/03/29 21:43:41;;;;;;;11.70;10.30;;;;;;;8.18;82.88;100139.40;180978;1260;44199;-87
2023/03/29 21:47:44;;;;;;;17.40;10.30;;;;;;;8.17;83.13;100138.93;180953;1260;58663;-87
2023/03/29 21:51:48;;;;;;;12.80;9.60;;;;;;;8.16;83.64;100134.06;180901;1261;43729;-87
2023/03/29 21:55:51;;;;;;;11.60;8.30;;;;;;;8.19;84.18;100128.20;180913;1260;44099;-87
2023/03/29 21:59:55;;;;;;;10.50;9.50;;;;;;;8.16;84.48;100125.54;181054;1260;45685;-87
2023/03/29 22:03:59;;;;;;;12.10;9.20;;;;;;;8.18;84.84;100119.45;181006;1260;43751;-87
2023/03/29 22:08:04;;;;;;;13.10;9.10;;;;;;;8.18;85.20;100111.80;181022;1260;58051;-87
2023/03/29 22:12:08;;;;;;;10.30;8.10;;;;;;;8.18;84.83;100104.75;180877;1261;44153;-88
2023/03/29 22:16:15;;;;;;;10.20;7.30;;;;;;;8.16;84.96;100103.52;181076;1260;43713;-87